Time;durP1;ratioP1;P1;durP2;ratioP2;P2;SDS_P1;SDS_P2;PMS_P1;PMS_P2;Temp;Humidity;BMP_temperature;BMP_pressure;BME280_temperature;BME280_humidity;BME280_pressure;Samples;Min_cycle;Max_cycle;Signal;HPM_P1;HPM_P2
2021/08/23 00:01:51;;;;;;;19.13;9.63;;;17.50;99.90;;;;;;5066754;28;20017;-81
2021/08/23 00:04:17;;;;;;;15.23;9.77;;;17.50;99.90;;;;;;5067776;28;20036;-81
2021/08/23 00:06:42;;;;;;;16.42;10.27;;;17.50;99.90;;;;;;5066438;28;20493;-81
2021/08/23 00:09:08;;;;;;;17.80;10.35;;;17.50;99.90;;;;;;5085508;28;20045;-80
2021/08/23 00:11:34;;;;;;;16.13;9.73;;;17.50;99.90;;;;;;5068780;28;20021;-80
2021/08/23 00:13:59;;;;;;;13.88;9.35;;;17.50;99.90;;;;;;5081880;28;20043;-80
2021/08/23 00:16:25;;;;;;;18.92;9.93;;;17.50;99.90;;;;;;5070699;28;20040;-79
2021/08/23 00:18:51;;;;;;;16.27;9.70;;;17.50;99.90;;;;;;5064866;28;20025;-79
2021/08/23 00:21:25;;;;;;;16.15;9.90;;;17.50;99.90;;;;;;5051373;28;20212;-80
2021/08/23 00:24:17;;;;;;;14.88;9.38;;;17.50;99.90;;;;;;5066475;28;20015;-79
2021/08/23 00:26:43;;;;;;;15.70;9.23;;;17.50;99.90;;;;;;5072402;28;20017;-79
2021/08/23 00:29:08;;;;;;;14.63;9.75;;;17.50;99.90;;;;;;5071378;28;20039;-79
2021/08/23 00:31:34;;;;;;;14.75;8.75;;;17.50;99.90;;;;;;5074335;28;20553;-77
2021/08/23 00:34:00;;;;;;;18.55;10.30;;;17.50;99.90;;;;;;5073172;28;20047;-79
2021/08/23 00:36:25;;;;;;;12.82;9.00;;;17.50;99.90;;;;;;5072240;28;20044;-78
2021/08/23 00:38:51;;;;;;;15.23;10.13;;;17.50;99.90;;;;;;5075722;28;20014;-78
2021/08/23 00:41:17;;;;;;;17.77;9.23;;;17.50;99.90;;;;;;5092090;28;20029;-78
2021/08/23 00:43:43;;;;;;;19.90;10.68;;;17.50;99.90;;;;;;5091288;28;20039;-78
2021/08/23 00:46:08;;;;;;;17.23;10.57;;;17.60;99.90;;;;;;5072401;28;20005;-80
2021/08/23 00:48:36;;;;;;;15.88;10.40;;;17.50;99.90;;;;;;5066294;28;20074;-77
2021/08/23 00:51:02;;;;;;;15.38;10.65;;;17.50;99.90;;;;;;5060276;28;20037;-79
2021/08/23 00:53:28;;;;;;;15.18;9.90;;;17.50;99.90;;;;;;5060914;28;20504;-79
2021/08/23 00:55:55;;;;;;;19.83;11.20;;;17.50;99.90;;;;;;5066809;28;20018;-78
2021/08/23 00:58:21;;;;;;;15.55;10.15;;;17.50;99.90;;;;;;5038450;28;20006;-79
2021/08/23 01:00:57;;;;;;;20.73;11.23;;;17.50;99.90;;;;;;5029889;28;20115;-79
2021/08/23 01:03:56;;;;;;;16.25;10.05;;;17.50;99.90;;;;;;5034716;28;20374;-79
2021/08/23 01:06:24;;;;;;;17.20;11.50;;;17.60;99.90;;;;;;5033697;28;20523;-79
2021/08/23 01:08:57;;;;;;;23.08;13.13;;;17.60;99.90;;;;;;5025439;28;20042;-79
2021/08/23 01:11:23;;;;;;;22.45;14.32;;;17.60;99.90;;;;;;5036020;28;20036;-78
2021/08/23 01:13:50;;;;;;;23.48;15.30;;;17.50;99.90;;;;;;5035539;28;20060;-78
2021/08/23 01:16:16;;;;;;;25.45;15.20;;;17.40;99.90;;;;;;5033989;28;20040;-79
2021/08/23 01:18:43;;;;;;;28.15;15.88;;;17.40;99.90;;;;;;5030742;28;20033;-79
2021/08/23 01:21:09;;;;;;;31.58;16.38;;;17.30;99.90;;;;;;5018642;28;20097;-79
2021/08/23 01:23:39;;;;;;;26.85;15.85;;;17.30;99.90;;;;;;5037852;28;20386;-79
2021/08/23 01:26:05;;;;;;;25.33;15.93;;;17.30;99.90;;;;;;5035370;28;20496;-79
2021/08/23 01:28:39;;;;;;;30.33;16.83;;;17.30;99.90;;;;;;5032709;28;20101;-79
2021/08/23 01:31:14;;;;;;;36.90;17.45;;;17.30;99.90;;;;;;5031962;28;20060;-79
2021/08/23 01:33:44;;;;;;;27.63;16.45;;;17.30;99.90;;;;;;5034726;28;20029;-78
2021/08/23 01:36:11;;;;;;;25.52;15.65;;;17.30;99.90;;;;;;5033411;28;20084;-79
2021/08/23 01:38:37;;;;;;;31.95;15.43;;;17.30;99.90;;;;;;5033879;28;20021;-79
2021/08/23 01:41:05;;;;;;;28.10;16.20;;;17.30;99.90;;;;;;5032587;28;20026;-80
2021/08/23 01:43:30;;;;;;;31.85;17.23;;;17.30;99.90;;;;;;5034924;28;20389;-79
2021/08/23 01:45:56;;;;;;;30.23;16.33;;;17.30;99.90;;;;;;5034787;28;20112;-79
2021/08/23 01:48:22;;;;;;;30.20;16.10;;;17.30;99.90;;;;;;5035176;28;20068;-79
2021/08/23 01:50:48;;;;;;;34.95;16.55;;;17.20;99.90;;;;;;5026250;28;20025;-79
2021/08/23 01:53:16;;;;;;;35.85;16.58;;;17.20;99.90;;;;;;5032688;28;20152;-78
2021/08/23 01:55:44;;;;;;;34.25;16.38;;;17.10;99.90;;;;;;5030911;28;20565;-78
2021/08/23 01:58:10;;;;;;;27.88;15.38;;;17.20;99.90;;;;;;5032454;28;20022;-78
2021/08/23 02:00:36;;;;;;;29.30;16.08;;;17.10;99.90;;;;;;5030268;28;20029;-79
2021/08/23 02:03:02;;;;;;;27.00;15.32;;;17.10;99.90;;;;;;5033898;28;20095;-78
2021/08/23 02:05:28;;;;;;;43.83;16.35;;;17.10;99.90;;;;;;5029398;28;20095;-79
2021/08/23 02:07:55;;;;;;;29.88;15.48;;;17.10;99.90;;;;;;5031879;28;20063;-78
2021/08/23 02:10:20;;;;;;;27.70;14.82;;;17.10;99.90;;;;;;5032943;28;20550;-79
2021/08/23 02:12:46;;;;;;;31.13;15.40;;;17.10;99.90;;;;;;5031078;28;20116;-78
2021/08/23 02:15:12;;;;;;;27.45;14.63;;;17.10;99.90;;;;;;5032584;28;20037;-79
2021/08/23 02:17:38;;;;;;;30.52;14.63;;;17.10;99.90;;;;;;5032577;28;20034;-78
2021/08/23 02:20:06;;;;;;;32.80;15.25;;;17.10;99.90;;;;;;5028246;28;20494;-78
2021/08/23 02:22:31;;;;;;;37.50;15.90;;;17.00;99.90;;;;;;5024254;28;20509;-78
2021/08/23 02:24:57;;;;;;;41.55;17.35;;;16.90;99.90;;;;;;5031355;28;20022;-79
2021/08/23 02:27:23;;;;;;;35.22;16.48;;;16.90;99.90;;;;;;5031418;28;20036;-78
2021/08/23 02:29:48;;;;;;;40.33;17.95;;;16.80;99.90;;;;;;5032492;28;20022;-78
2021/08/23 02:32:14;;;;;;;46.70;17.83;;;16.80;99.90;;;;;;5031906;28;20493;-79
2021/08/23 02:34:39;;;;;;;50.35;19.35;;;16.80;99.90;;;;;;5034387;28;20064;-77
2021/08/23 02:37:05;;;;;;;51.75;20.30;;;16.70;99.90;;;;;;5031105;28;20017;-78
2021/08/23 02:39:31;;;;;;;55.05;21.13;;;16.70;99.90;;;;;;5033872;28;20390;-78
2021/08/23 02:41:56;;;;;;;51.92;20.25;;;16.60;99.90;;;;;;5031477;28;20034;-78
2021/08/23 02:44:23;;;;;;;54.85;21.38;;;16.70;99.90;;;;;;5026608;28;20028;-78
2021/08/23 02:46:49;;;;;;;47.03;19.70;;;16.70;99.90;;;;;;5029022;28;20112;-79
2021/08/23 02:49:16;;;;;;;55.22;20.83;;;16.70;99.90;;;;;;5032759;28;20029;-79
2021/08/23 02:51:43;;;;;;;43.47;19.02;;;16.70;99.90;;;;;;5016260;28;20383;-77
2021/08/23 02:54:09;;;;;;;52.30;20.88;;;16.70;99.90;;;;;;5020223;28;20069;-78
2021/08/23 02:56:36;;;;;;;53.20;19.90;;;16.60;99.90;;;;;;5029746;28;20394;-78
2021/08/23 02:59:02;;;;;;;51.88;20.08;;;16.60;99.90;;;;;;5032717;28;20497;-77
2021/08/23 03:01:27;;;;;;;49.17;19.30;;;16.60;99.90;;;;;;5028167;28;20103;-78
2021/08/23 03:03:53;;;;;;;46.15;19.80;;;16.50;99.90;;;;;;5033223;28;20135;-78
2021/08/23 03:06:18;;;;;;;40.92;18.63;;;16.60;99.90;;;;;;5031788;28;20512;-78
2021/08/23 03:08:44;;;;;;;44.30;17.90;;;16.60;99.90;;;;;;5031178;28;20029;-79
2021/08/23 03:11:12;;;;;;;44.38;18.10;;;16.60;99.90;;;;;;5028972;28;20061;-78
2021/08/23 03:13:39;;;;;;;35.35;16.17;;;16.50;99.90;;;;;;5030974;28;20524;-77
2021/08/23 03:16:05;;;;;;;32.35;16.92;;;16.50;99.90;;;;;;5029961;28;20025;-78
2021/08/23 03:18:31;;;;;;;35.35;16.48;;;16.50;99.90;;;;;;5031467;28;20505;-78
2021/08/23 03:20:57;;;;;;;34.83;17.10;;;16.60;99.90;;;;;;5031793;28;20045;-77
2021/08/23 03:23:23;;;;;;;30.98;15.43;;;16.50;99.90;;;;;;5030941;28;20132;-77
2021/08/23 03:25:49;;;;;;;28.27;15.63;;;16.50;99.90;;;;;;5031362;28;20196;-78
2021/08/23 03:28:15;;;;;;;26.63;14.85;;;16.50;99.90;;;;;;5030320;28;20123;-77
2021/08/23 03:30:40;;;;;;;25.75;13.82;;;16.40;99.90;;;;;;5027429;28;20034;-78
2021/08/23 03:33:06;;;;;;;23.00;13.32;;;16.40;99.90;;;;;;5027968;28;20017;-78
2021/08/23 03:35:32;;;;;;;23.80;12.45;;;16.30;99.90;;;;;;5032862;28;20049;-77
2021/08/23 03:38:00;;;;;;;24.38;13.80;;;16.40;99.90;;;;;;5032128;28;20041;-78
2021/08/23 03:40:25;;;;;;;23.05;12.15;;;16.30;99.90;;;;;;5031071;28;20029;-78
2021/08/23 03:42:51;;;;;;;24.10;13.30;;;16.40;99.90;;;;;;5032497;28;20056;-77
2021/08/23 03:45:16;;;;;;;24.35;12.73;;;16.30;99.90;;;;;;5028924;28;20029;-77
2021/08/23 03:47:42;;;;;;;25.38;13.10;;;16.40;99.90;;;;;;5028762;28;20022;-77
2021/08/23 03:50:08;;;;;;;23.83;13.02;;;16.30;99.90;;;;;;5023072;28;20032;-77
2021/08/23 03:52:34;;;;;;;25.48;13.55;;;16.30;99.90;;;;;;5029473;28;20112;-76
2021/08/23 03:54:59;;;;;;;22.65;12.77;;;16.30;99.90;;;;;;5031879;28;20161;-77
2021/08/23 03:57:25;;;;;;;31.05;12.27;;;16.30;99.90;;;;;;5031474;28;20035;-77
2021/08/23 03:59:51;;;;;;;23.02;12.57;;;16.40;99.90;;;;;;5024508;28;20108;-78
2021/08/23 04:02:16;;;;;;;23.00;12.40;;;16.40;99.90;;;;;;5024738;28;20107;-77
2021/08/23 04:04:42;;;;;;;21.77;11.57;;;16.40;99.90;;;;;;5031924;28;20021;-77
2021/08/23 04:07:07;;;;;;;25.73;11.57;;;16.40;99.90;;;;;;5024421;28;20390;-77
2021/08/23 04:09:33;;;;;;;26.83;12.30;;;16.40;99.90;;;;;;5029255;28;20056;-77
2021/08/23 04:11:59;;;;;;;22.58;11.55;;;16.40;99.90;;;;;;5030538;28;20037;-77
2021/08/23 04:14:25;;;;;;;21.52;11.70;;;16.40;99.90;;;;;;5031684;28;20482;-76
2021/08/23 04:16:50;;;;;;;20.92;11.30;;;16.40;99.90;;;;;;5032791;28;20025;-76
2021/08/23 04:19:19;;;;;;;22.50;12.00;;;16.50;99.90;;;;;;5018029;28;20050;-77
2021/08/23 04:21:44;;;;;;;19.50;10.07;;;16.40;99.90;;;;;;5013435;28;20128;-77
2021/08/23 04:24:10;;;;;;;23.15;10.30;;;16.40;99.90;;;;;;5027393;28;20053;-77
2021/08/23 04:26:35;;;;;;;21.70;10.48;;;16.40;99.90;;;;;;5028894;28;20022;-77
2021/08/23 04:29:01;;;;;;;16.65;10.70;;;16.40;99.90;;;;;;5028791;28;20026;-77
2021/08/23 04:31:30;;;;;;;18.73;10.48;;;16.40;99.90;;;;;;5028676;28;20024;-76
2021/08/23 04:33:56;;;;;;;16.38;9.55;;;16.40;99.90;;;;;;5048359;28;20061;-77
2021/08/23 04:36:22;;;;;;;15.55;8.57;;;16.40;99.90;;;;;;5031160;28;20006;-77
2021/08/23 04:38:48;;;;;;;16.83;9.52;;;16.40;99.90;;;;;;5036816;28;20038;-78
2021/08/23 04:43:57;;;;;;;23.23;8.63;;;16.40;99.90;;;;;;5030637;28;20065;-77
2021/08/23 04:46:23;;;;;;;12.63;7.55;;;16.40;99.90;;;;;;5034592;28;20033;-77
2021/08/23 04:48:49;;;;;;;11.85;7.32;;;16.50;99.90;;;;;;5031910;28;20022;-77
2021/08/23 04:51:15;;;;;;;11.88;7.35;;;16.50;99.90;;;;;;5048534;28;20501;-77
2021/08/23 04:53:40;;;;;;;10.10;6.25;;;16.50;99.90;;;;;;5037196;28;20006;-75
2021/08/23 04:56:10;;;;;;;15.48;6.65;;;16.40;99.90;;;;;;5042460;28;20014;-76
2021/08/23 04:58:36;;;;;;;14.80;6.20;;;16.40;99.90;;;;;;5016186;28;20093;-76
2021/08/23 05:01:02;;;;;;;12.25;6.00;;;16.40;99.90;;;;;;5020548;28;20141;-76
2021/08/23 05:03:27;;;;;;;13.18;5.63;;;16.40;99.90;;;;;;5029950;28;20389;-76
2021/08/23 05:05:53;;;;;;;12.57;5.82;;;16.40;99.90;;;;;;5022763;28;20032;-76
2021/08/23 05:08:19;;;;;;;10.75;5.43;;;16.40;99.90;;;;;;5021618;28;20113;-76
2021/08/23 05:10:46;;;;;;;9.05;5.63;;;16.40;99.90;;;;;;5021883;28;20042;-75
2021/08/23 05:13:12;;;;;;;11.93;6.20;;;16.40;99.90;;;;;;5025029;28;20971;-75
2021/08/23 05:15:37;;;;;;;7.47;4.60;;;16.40;99.90;;;;;;5021406;28;20041;-75
2021/08/23 05:18:03;;;;;;;8.20;5.22;;;16.40;99.90;;;;;;5020171;28;20060;-76
2021/08/23 05:20:29;;;;;;;13.75;5.75;;;16.50;99.90;;;;;;5010091;28;20108;-76
2021/08/23 05:22:54;;;;;;;9.02;6.85;;;16.50;99.90;;;;;;5004087;28;20018;-77
2021/08/23 05:25:20;;;;;;;12.38;5.35;;;16.50;99.90;;;;;;5021631;28;20025;-77
2021/08/23 05:27:46;;;;;;;10.68;4.78;;;16.50;99.90;;;;;;5010029;28;20084;-78
2021/08/23 05:30:12;;;;;;;6.55;4.85;;;16.50;99.90;;;;;;5019530;28;20407;-79
2021/08/23 05:32:38;;;;;;;9.60;4.75;;;16.50;99.90;;;;;;5021495;28;20025;-79
2021/08/23 05:35:04;;;;;;;12.15;4.32;;;16.50;99.90;;;;;;5017774;28;20014;-76
2021/08/23 05:37:30;;;;;;;9.88;4.28;;;16.60;99.90;;;;;;5011657;28;20026;-75
2021/08/23 05:39:55;;;;;;;9.20;4.75;;;16.60;99.90;;;;;;5013461;28;20552;-76
2021/08/23 05:42:21;;;;;;;11.20;4.20;;;16.60;99.90;;;;;;5012172;28;20045;-75
2021/08/23 05:44:47;;;;;;;12.05;4.65;;;16.60;99.90;;;;;;5015124;28;20220;-77
2021/08/23 05:47:13;;;;;;;5.60;3.42;;;16.60;99.90;;;;;;5014096;28;20105;-75
2021/08/23 05:50:16;;;;;;;16.27;4.05;;;16.70;99.90;;;;;;5014829;28;20042;-76
2021/08/23 05:52:42;;;;;;;12.75;3.17;;;16.70;99.90;;;;;;5010666;28;20033;-75
2021/08/23 05:55:08;;;;;;;6.28;4.00;;;16.80;99.90;;;;;;5012181;28;20402;-77
2021/08/23 05:57:33;;;;;;;7.53;3.40;;;16.80;99.90;;;;;;5014806;28;20387;-77
2021/08/23 05:59:59;;;;;;;8.25;3.45;;;16.80;99.90;;;;;;5013211;28;20030;-77
2021/08/23 06:02:25;;;;;;;8.88;4.05;;;16.90;99.90;;;;;;5020127;28;20064;-78
2021/08/23 06:04:50;;;;;;;8.70;3.42;;;16.90;99.90;;;;;;5022442;28;20030;-77
2021/08/23 06:07:16;;;;;;;5.45;3.33;;;16.90;99.90;;;;;;5017758;28;20054;-77
2021/08/23 06:09:42;;;;;;;4.97;2.90;;;16.90;99.90;;;;;;5021581;28;20133;-78
2021/08/23 06:12:08;;;;;;;4.38;2.75;;;17.00;99.90;;;;;;5008579;28;20536;-77
2021/08/23 06:14:33;;;;;;;7.30;2.88;;;17.00;99.90;;;;;;5018593;28;20057;-78
2021/08/23 06:16:59;;;;;;;9.13;2.83;;;17.00;99.90;;;;;;5021195;28;20045;-80
2021/08/23 06:19:25;;;;;;;5.95;2.53;;;17.00;99.90;;;;;;5016524;28;20022;-80
2021/08/23 06:21:50;;;;;;;16.08;2.63;;;17.10;99.90;;;;;;5007485;28;20382;-78
2021/08/23 06:24:16;;;;;;;6.88;3.13;;;17.00;99.90;;;;;;5008544;28;20393;-77
2021/08/23 06:26:42;;;;;;;10.15;2.55;;;17.10;99.90;;;;;;5014464;28;20034;-77
2021/08/23 06:29:08;;;;;;;9.95;2.95;;;17.10;99.90;;;;;;5014459;28;20038;-76
2021/08/23 06:31:35;;;;;;;9.93;3.13;;;17.20;99.90;;;;;;5018253;28;20389;-77
2021/08/23 06:34:01;;;;;;;6.20;2.90;;;17.20;99.90;;;;;;5010952;28;20521;-77
2021/08/23 06:36:26;;;;;;;8.00;2.30;;;17.20;99.90;;;;;;5005096;28;20281;-77
2021/08/23 06:38:52;;;;;;;4.88;2.60;;;17.20;99.90;;;;;;5027550;28;20541;-77
2021/08/23 06:41:20;;;;;;;6.88;2.53;;;17.20;99.90;;;;;;5011045;28;20044;-78
2021/08/23 06:43:46;;;;;;;10.65;3.05;;;17.30;99.90;;;;;;5012759;28;20030;-77
2021/08/23 06:46:12;;;;;;;7.18;2.83;;;17.30;99.90;;;;;;5013032;28;20057;-78
2021/08/23 06:48:38;;;;;;;5.35;2.30;;;17.20;99.90;;;;;;5013664;28;20029;-77
2021/08/23 06:51:04;;;;;;;7.65;2.15;;;17.30;99.90;;;;;;5012788;28;20033;-78
2021/08/23 06:53:30;;;;;;;6.93;2.35;;;17.30;99.90;;;;;;5014125;28;20097;-77
2021/08/23 06:55:56;;;;;;;4.95;2.15;;;17.40;99.90;;;;;;5010697;28;20541;-77
2021/08/23 06:58:21;;;;;;;4.10;2.45;;;17.40;99.90;;;;;;5008920;28;21310;-78
2021/08/23 07:00:47;;;;;;;15.70;3.00;;;17.50;99.90;;;;;;5013217;28;20033;-77
2021/08/23 07:03:13;;;;;;;11.15;3.00;;;17.50;99.90;;;;;;5014350;28;20030;-77
2021/08/23 07:05:38;;;;;;;5.07;2.42;;;17.50;99.90;;;;;;5012902;28;20128;-77
2021/08/23 07:08:04;;;;;;;7.30;2.20;;;17.40;99.90;;;;;;5014231;28;20022;-77
2021/08/23 07:10:30;;;;;;;6.88;2.70;;;17.40;99.90;;;;;;5013480;28;20034;-77
2021/08/23 07:12:55;;;;;;;5.30;2.30;;;17.40;99.90;;;;;;5010833;28;20034;-77
2021/08/23 07:15:21;;;;;;;5.13;2.08;;;17.40;99.90;;;;;;5012345;28;20037;-77
2021/08/23 07:17:47;;;;;;;4.32;2.38;;;17.50;99.90;;;;;;5012291;28;20477;-77
2021/08/23 07:20:12;;;;;;;8.65;2.25;;;17.50;99.90;;;;;;5023416;28;20017;-77
2021/08/23 07:22:38;;;;;;;5.43;2.15;;;17.50;99.90;;;;;;5012763;28;20029;-77
2021/08/23 07:25:05;;;;;;;4.95;2.20;;;17.60;99.90;;;;;;5019700;28;20747;-77
2021/08/23 07:27:32;;;;;;;6.50;2.10;;;17.60;99.90;;;;;;5013906;28;20026;-77
2021/08/23 07:29:58;;;;;;;7.63;2.30;;;17.80;99.90;;;;;;5012270;28;20034;-77
2021/08/23 07:32:24;;;;;;;3.00;1.70;;;17.80;99.90;;;;;;5012320;28;20038;-77
2021/08/23 07:34:50;;;;;;;3.78;2.17;;;17.80;99.90;;;;;;5013642;28;20463;-78
2021/08/23 07:37:15;;;;;;;4.47;2.20;;;17.90;99.90;;;;;;5013147;28;20398;-78
2021/08/23 07:39:45;;;;;;;11.10;2.22;;;17.90;99.90;;;;;;5013443;28;20037;-77
2021/08/23 07:42:11;;;;;;;5.85;2.08;;;17.90;99.90;;;;;;5012389;28;20042;-77
2021/08/23 07:44:37;;;;;;;6.35;2.05;;;18.00;99.90;;;;;;5011662;28;20030;-77
2021/08/23 07:47:04;;;;;;;5.13;2.88;;;18.00;99.90;;;;;;5012185;28;20044;-77
2021/08/23 07:49:30;;;;;;;4.70;1.90;;;18.00;99.90;;;;;;5012632;28;20026;-75
2021/08/23 07:51:56;;;;;;;4.72;2.15;;;18.10;99.90;;;;;;5012575;28;20516;-75
2021/08/23 07:54:21;;;;;;;5.43;2.15;;;18.10;99.90;;;;;;5012590;28;20045;-75
2021/08/23 07:56:47;;;;;;;8.32;2.25;;;18.20;99.90;;;;;;5013875;28;20018;-76
2021/08/23 07:59:14;;;;;;;3.42;1.52;;;18.20;99.90;;;;;;5012234;28;20360;-76
2021/08/23 08:01:39;;;;;;;3.95;2.13;;;18.20;99.90;;;;;;5010436;28;20501;-76
2021/08/23 08:04:05;;;;;;;4.20;1.60;;;18.20;99.90;;;;;;5011998;28;20045;-75
2021/08/23 08:06:31;;;;;;;4.65;2.15;;;18.20;99.90;;;;;;5011396;28;20025;-76
2021/08/23 08:08:56;;;;;;;2.58;1.73;;;18.20;99.90;;;;;;5013158;28;20037;-76
2021/08/23 08:11:22;;;;;;;2.88;2.15;;;18.20;99.90;;;;;;5012236;28;20042;-76
2021/08/23 08:13:48;;;;;;;3.72;2.10;;;18.20;99.90;;;;;;5011974;28;20022;-76
2021/08/23 08:16:14;;;;;;;3.35;1.75;;;18.20;99.90;;;;;;5011525;28;20069;-77
2021/08/23 08:18:40;;;;;;;5.80;1.60;;;18.20;99.90;;;;;;5011602;28;20107;-76
2021/08/23 08:21:06;;;;;;;8.07;2.63;;;18.20;99.90;;;;;;5013884;28;20018;-76
2021/08/23 08:23:32;;;;;;;8.05;3.10;;;18.30;99.90;;;;;;5013133;28;20072;-76
2021/08/23 08:25:57;;;;;;;9.20;3.83;;;18.40;99.90;;;;;;5013815;28;20034;-77
2021/08/23 08:28:23;;;;;;;2.45;1.83;;;18.50;99.90;;;;;;5013901;28;20052;-77
2021/08/23 08:30:49;;;;;;;6.10;1.75;;;18.60;99.90;;;;;;5012467;28;20030;-77
2021/08/23 08:33:15;;;;;;;2.55;1.88;;;18.70;99.90;;;;;;5012640;28;20038;-77
2021/08/23 08:35:41;;;;;;;2.78;1.60;;;18.80;99.90;;;;;;5012314;28;20054;-77
2021/08/23 08:38:07;;;;;;;5.80;2.03;;;19.00;99.90;;;;;;5012277;28;20094;-77
2021/08/23 08:40:32;;;;;;;2.65;1.90;;;19.10;99.90;;;;;;4994536;28;20043;-78
2021/08/23 08:42:58;;;;;;;2.97;1.45;;;19.00;99.90;;;;;;5013798;28;20070;-77
2021/08/23 08:45:27;;;;;;;21.17;3.17;;;18.80;99.90;;;;;;5013605;28;20030;-78
2021/08/23 08:47:57;;;;;;;2.63;1.52;;;18.70;99.90;;;;;;5002670;28;20030;-77
2021/08/23 08:50:23;;;;;;;3.50;1.67;;;18.60;99.90;;;;;;5012759;28;20113;-77
2021/08/23 08:52:50;;;;;;;5.72;1.90;;;18.50;99.90;;;;;;5011389;28;20121;-77
2021/08/23 08:55:16;;;;;;;3.95;1.73;;;18.50;99.90;;;;;;5011953;28;20033;-77
2021/08/23 08:57:42;;;;;;;5.03;1.75;;;18.60;99.90;;;;;;5011833;28;20561;-77
2021/08/23 09:00:09;;;;;;;8.60;1.58;;;18.60;99.90;;;;;;5005292;28;20101;-77
2021/08/23 09:02:35;;;;;;;3.40;2.20;;;18.70;99.90;;;;;;5008080;28;20081;-77
2021/08/23 09:05:04;;;;;;;3.78;1.77;;;18.80;99.90;;;;;;5010037;28;20076;-78
2021/08/23 09:07:37;;;;;;;6.63;1.50;;;18.80;99.90;;;;;;5011795;28;20053;-77
2021/08/23 09:10:17;;;;;;;4.53;1.60;;;19.00;99.90;;;;;;5012340;28;20049;-78
2021/08/23 09:12:43;;;;;;;6.55;1.85;;;19.00;99.90;;;;;;5012852;28;20026;-78
2021/08/23 09:15:09;;;;;;;3.47;2.20;;;19.20;99.90;;;;;;5010014;28;20069;-78
2021/08/23 09:17:35;;;;;;;4.35;2.20;;;19.40;99.90;;;;;;5013047;28;20076;-77
2021/08/23 09:20:06;;;;;;;8.95;1.70;;;19.50;99.90;;;;;;5013414;28;20437;-77
2021/08/23 09:22:31;;;;;;;8.18;1.80;;;19.80;99.90;;;;;;5009733;28;20033;-77
2021/08/23 09:25:07;;;;;;;6.32;1.73;;;20.00;99.90;;;;;;5013424;28;20034;-77
2021/08/23 09:27:33;;;;;;;4.18;1.42;;;20.10;99.90;;;;;;5014418;28;20034;-77
2021/08/23 09:30:02;;;;;;;8.30;1.52;;;20.20;99.90;;;;;;5014969;28;20041;-79
2021/08/23 09:32:29;;;;;;;3.10;1.75;;;20.40;99.90;;;;;;5017757;28;20041;-77
2021/08/23 09:34:56;;;;;;;4.55;2.65;;;20.40;99.90;;;;;;5019550;28;20042;-78
2021/08/23 09:37:26;;;;;;;2.83;1.35;;;20.30;99.90;;;;;;5023883;28;20030;-77
2021/08/23 09:39:53;;;;;;;4.82;1.42;;;20.20;99.90;;;;;;5022541;28;20033;-76
2021/08/23 09:42:21;;;;;;;5.03;1.77;;;20.00;99.90;;;;;;5021322;28;20034;-78
2021/08/23 09:44:48;;;;;;;2.15;1.50;;;19.80;99.90;;;;;;5021355;28;20033;-76
2021/08/23 09:47:14;;;;;;;2.57;1.43;;;19.80;99.90;;;;;;5021250;28;20066;-76
2021/08/23 09:49:45;;;;;;;1.38;1.17;;;19.70;99.90;;;;;;5021305;28;20026;-77
2021/08/23 09:52:22;;;;;;;6.25;1.50;;;19.50;99.90;;;;;;5023447;28;20026;-77
2021/08/23 09:55:04;;;;;;;2.15;1.58;;;19.40;99.90;;;;;;5027320;28;20034;-77
2021/08/23 09:57:35;;;;;;;5.55;1.40;;;19.40;99.90;;;;;;5036013;28;20026;-78
2021/08/23 10:00:02;;;;;;;3.75;1.30;;;19.70;99.90;;;;;;5029467;28;20053;-76
2021/08/23 10:02:28;;;;;;;3.33;1.33;;;20.00;99.90;;;;;;5028179;28;20026;-77
2021/08/23 10:04:56;;;;;;;5.20;1.80;;;20.10;99.90;;;;;;5030842;28;20089;-76
2021/08/23 10:07:26;;;;;;;9.18;2.15;;;20.20;99.90;;;;;;5030168;28;20038;-76
2021/08/23 10:09:52;;;;;;;7.72;2.00;;;20.00;99.90;;;;;;5032437;28;20034;-77
2021/08/23 10:12:18;;;;;;;6.35;1.45;;;19.80;99.90;;;;;;5029066;28;20088;-77
2021/08/23 10:14:44;;;;;;;5.10;1.65;;;19.80;99.90;;;;;;5028742;28;20037;-76
2021/08/23 10:17:10;;;;;;;8.80;1.80;;;20.10;99.90;;;;;;5026811;28;20532;-76
2021/08/23 10:19:37;;;;;;;3.97;1.23;;;20.30;99.90;;;;;;5022379;28;20044;-76
2021/08/23 10:22:03;;;;;;;4.97;1.90;;;20.40;99.90;;;;;;5025524;28;20057;-77
2021/08/23 10:24:30;;;;;;;3.25;1.50;;;20.40;99.90;;;;;;5017631;28;20046;-77
2021/08/23 10:26:57;;;;;;;3.42;1.38;;;20.10;99.90;;;;;;5016735;28;20099;-76
2021/08/23 10:29:23;;;;;;;3.05;1.45;;;20.00;99.90;;;;;;5018264;28;20048;-76
2021/08/23 10:31:49;;;;;;;2.00;1.42;;;20.10;99.90;;;;;;5015871;28;20033;-76
2021/08/23 10:34:28;;;;;;;4.60;1.65;;;20.20;99.90;;;;;;5013268;28;20467;-77
2021/08/23 10:36:53;;;;;;;12.55;1.90;;;20.30;99.90;;;;;;5016835;28;20548;-76
2021/08/23 10:39:25;;;;;;;5.13;2.22;;;20.50;99.90;;;;;;5015800;28;20025;-76
2021/08/23 10:41:53;;;;;;;5.35;2.25;;;20.70;99.90;;;;;;5032368;28;20076;-77
2021/08/23 10:44:30;;;;;;;2.97;1.88;;;20.60;99.90;;;;;;5015336;28;20129;-76
2021/08/23 10:47:07;;;;;;;3.95;1.85;;;20.50;99.90;;;;;;5015632;28;20034;-77
2021/08/23 10:49:51;;;;;;;2.72;1.65;;;20.50;99.90;;;;;;5016760;28;20415;-76
2021/08/23 10:52:17;;;;;;;4.65;1.75;;;20.60;99.90;;;;;;5015495;28;20046;-77
2021/08/23 10:54:49;;;;;;;4.63;2.03;;;20.60;99.90;;;;;;5016284;28;20109;-76
2021/08/23 10:57:20;;;;;;;2.25;1.45;;;20.50;99.90;;;;;;5015729;28;20084;-75
2021/08/23 10:59:49;;;;;;;4.00;1.55;;;20.40;99.90;;;;;;5015493;28;20037;-75
2021/08/23 11:02:25;;;;;;;5.32;1.50;;;20.50;99.90;;;;;;5015384;28;20080;-76
2021/08/23 11:05:11;;;;;;;6.35;1.70;;;20.90;99.90;;;;;;5014057;28;20134;-76
2021/08/23 11:07:38;;;;;;;5.10;1.65;;;21.10;99.90;;;;;;5014145;28;20284;-76
2021/08/23 11:10:14;;;;;;;;;;;21.00;99.90;;;;;;5014296;28;20053;-76
2021/08/23 11:12:48;;;;;;;5.45;2.17;;;21.00;99.90;;;;;;5014265;28;19948;-76
2021/08/23 11:15:16;;;;;;;3.95;1.50;;;21.00;99.90;;;;;;5030851;28;20363;-76
2021/08/23 11:17:48;;;;;;;4.65;1.88;;;21.10;99.90;;;;;;5014104;28;20026;-76
2021/08/23 11:20:27;;;;;;;2.92;1.38;;;21.40;99.90;;;;;;5014148;28;20534;-76
2021/08/23 11:22:55;;;;;;;2.25;1.15;;;21.60;99.90;;;;;;5016196;28;20037;-76
2021/08/23 11:25:38;;;;;;;2.53;1.58;;;21.90;99.90;;;;;;5013825;28;20065;-76
2021/08/23 11:28:10;;;;;;;4.22;2.63;;;22.00;99.90;;;;;;5014059;28;20022;-76
2021/08/23 11:30:41;;;;;;;4.22;1.70;;;22.00;99.90;;;;;;5013864;28;20435;-76
2021/08/23 11:33:09;;;;;;;5.13;1.48;;;21.90;99.90;;;;;;5014485;28;20033;-76
2021/08/23 11:35:36;;;;;;;2.80;1.38;;;21.90;99.90;;;;;;5013767;28;20124;-76
2021/08/23 11:38:10;;;;;;;3.45;1.23;;;22.00;99.90;;;;;;5014654;28;20022;-76
2021/08/23 11:40:39;;;;;;;5.15;1.42;;;21.80;99.90;;;;;;5014451;28;20375;-76
2021/08/23 11:43:07;;;;;;;3.97;1.30;;;21.60;99.90;;;;;;5016012;28;20501;-77
2021/08/23 11:45:36;;;;;;;4.13;1.23;;;21.60;99.90;;;;;;5012885;28;20034;-76
2021/08/23 11:48:02;;;;;;;2.75;1.63;;;21.90;99.90;;;;;;5012057;28;20042;-77
2021/08/23 11:50:29;;;;;;;3.13;1.95;;;22.10;99.90;;;;;;5012298;28;20429;-76
2021/08/23 11:53:03;;;;;;;2.15;1.20;;;22.20;99.90;;;;;;5011314;28;20036;-76
2021/08/23 11:55:38;;;;;;;4.85;1.52;;;22.00;99.90;;;;;;5012009;28;20041;-76
2021/08/23 11:58:09;;;;;;;5.85;1.60;;;21.70;99.90;;;;;;5012431;28;20121;-76
2021/08/23 12:00:36;;;;;;;5.47;1.48;;;21.60;99.90;;;;;;5012277;28;20382;-76
2021/08/23 12:03:02;;;;;;;1.70;1.40;;;21.60;99.90;;;;;;5012304;28;20030;-77
2021/08/23 12:05:40;;;;;;;5.13;2.20;;;21.90;99.90;;;;;;5012400;28;20060;-76
2021/08/23 12:08:07;;;;;;;1.40;1.25;;;22.00;99.90;;;;;;5012059;28;20109;-75
2021/08/23 12:10:35;;;;;;;;;;;22.20;99.90;;;;;;5012216;28;20057;-76
2021/08/23 12:13:08;;;;;;;;;;;22.40;99.90;;;;;;5013158;28;20389;-76
2021/08/23 12:15:36;;;;;;;8.13;1.13;;;22.30;99.90;;;;;;5014199;28;19917;-76
2021/08/23 12:18:35;;;;;;;3.00;1.40;;;22.10;99.90;;;;;;5013270;28;20391;-76
2021/08/23 12:21:11;;;;;;;2.97;1.50;;;21.60;99.90;;;;;;5011797;28;20084;-76
2021/08/23 12:23:44;;;;;;;2.67;1.65;;;21.50;99.90;;;;;;5013362;28;20072;-76
2021/08/23 12:26:12;;;;;;;3.13;1.48;;;21.80;99.90;;;;;;5012036;28;20061;-76
2021/08/23 12:28:49;;;;;;;2.03;1.08;;;21.70;99.90;;;;;;5008573;28;20065;-76
2021/08/23 12:31:16;;;;;;;3.28;1.50;;;21.60;99.90;;;;;;5006638;28;20037;-76
2021/08/23 12:33:42;;;;;;;1.95;1.70;;;21.60;99.90;;;;;;5008312;28;20029;-76
2021/08/23 12:36:08;;;;;;;4.18;2.00;;;21.90;99.90;;;;;;5010375;28;20394;-76
2021/08/23 12:38:33;;;;;;;2.63;1.40;;;22.10;99.90;;;;;;5010896;28;20544;-76
2021/08/23 12:40:59;;;;;;;6.63;1.88;;;22.10;99.90;;;;;;5011375;28;20026;-76
2021/08/23 12:43:24;;;;;;;4.97;1.77;;;21.80;99.90;;;;;;5010629;28;20125;-77
2021/08/23 12:45:50;;;;;;;3.10;1.77;;;21.60;99.90;;;;;;5019632;28;20048;-76